Thursday, July 31, 2014, 7:38 PM EDT
Back to Local

KGKJ, Port Meadville Airport

Location: Meadville, PA, United States Lat: 41.633
Local Time: 7:38 PM EDT (23:38 GMT) Lon: -80.217
Time Zone: US/Eastern Elev: 1400 ft

Show me the last for .
Show Coded

Time T Td Feel RH Dir Speed Gust Alt SLP Vis Weather Sky Remarks
2014-07-31 18:53 72 50 76 45 260° 3 - 30.10 30.09 10 CLR None
2014-07-31 17:53 73 51 76 46 240° 6 - 30.10 30.09 10 CLR None
2014-07-31 16:53 73 50 76 44 230° 8 - 30.10 30.08 10 CLR None
2014-07-31 15:53 74 51 76 44 260° 12 - 30.09 30.08 10 FEW055 None
2014-07-31 14:53 73 51 76 46 250° 13 16 30.09 30.08 10 FEW050 None
2014-07-31 13:53 72 54 76 53 250° 9 - 30.09 30.07 10 CLR 6-hr Min Temp (2pm): 59.0°F
6-hr Max Temp (2pm): 72.0°F
2014-07-31 12:53 71 54 76 54 250° 10 18 30.08 30.06 10 FEW037 SCT047 None
2014-07-31 11:53 70 57 - 63 220° 8 - 30.08 30.06 10 SCT029 SCT040 None
2014-07-31 10:53 68 59 - 72 Variable 7 - 30.08 30.06 10 FEW016 SCT023 None
2014-07-31 10:23 64 58 - 80 Variable 6 - 30.08 - 10 BKN016 None
2014-07-31 09:53 64 58 - 80 220° 6 - 30.07 30.06 9 BKN012 None
2014-07-31 09:42 63 58 - 83 Variable 6 - 30.07 - 9 OVC012 None
2014-07-31 08:53 61 58 - 89 220° 6 - 30.07 30.06 6 BR OVC007 None
2014-07-31 08:46 60 57 - 89 220° 6 - 30.07 - 6 BR BKN006 OVC009 None
2014-07-31 07:58 59 57 - 93 220° 5 - 30.06 - 3 BR OVC003 None
2014-07-31 07:53 59 57 - 93 230° 3 - 30.06 30.05 2 BR OVC002 6-hr Precip Total (8am): 0.00"
24-hr Precip Total (8am): 0.20"
6-hr Min Temp (8am): 57.0°F
6-hr Max Temp (8am): 60.1°F
2014-07-31 07:12 58 57 - 96 210° 7 - 30.05 - 2 BR OVC002 None
2014-07-31 07:03 58 57 - 96 210° 6 - 30.05 - 2 BR OVC003 None
2014-07-31 06:53 58 56 - 93 220° 8 - 30.04 30.03 3 BR OVC003 None
2014-07-31 06:37 58 56 - 93 230° 5 - 30.04 - 4 BR OVC004 None
2014-07-31 05:53 58 55 - 90 190° 7 - 30.03 30.02 10 OVC008 None
2014-07-31 05:20 58 55 - 90 190° 6 - 30.02 - 10 BKN009 None
2014-07-31 04:53 58 55 - 90 Variable 3 - 30.02 30.01 10 FEW049 SCT070 6-hr Precip Total (5am): 0.00"
2014-07-31 02:53 59 56 - 89 190° 6 - 30.01 30.00 10 CLR 1-hr Precip Total: Trace
2014-07-31 01:53 60 57 - 89 200° 7 - 30.00 29.99 7 -RA FEW055 BKN080 OVC095 1-hr Precip Total: 0.01"
6-hr Precip Total (2am): 0.01"
6-hr Min Temp (2am): 59.0°F
6-hr Max Temp (2am): 64.9°F
2014-07-31 01:23 60 56 - 86 190° 6 - 30.03 - 10 SCT024 BKN065 None
2014-07-31 01:16 60 57 - 89 190° 5 - 30.03 - 10 BKN024 BKN065 None
2014-07-31 00:53 59 56 - 89 200° 5 - 30.03 30.02 10 FEW095 24-hr Min Temp (1am): 55.0°F
24-hr Max Temp (1am): 69.1°F
2014-07-30 23:53 60 58 - 92 190° 6 - 30.03 30.02 9 FEW100 SCT120 None
2014-07-30 21:53 62 59 - 89 - Calm - 30.04 30.03 10 FEW034 SCT047 OVC110 None
2014-07-30 20:53 63 59 - 86 - Calm - 30.03 30.01 10 FEW075 SCT090 1-hr Precip Total: Trace

Support USWX by starting your Amazon purchase here.